Hyak — WX9439 — position and weather

sailwx.info

Track history (hours):
 
Tides and Currents Weather Stations Pressure Air Temp Water Temp Dewpoint Dewpoint Depression Visibility Wind Speed Wind Dir Waves Ship Positions

Hyak

Owner: WASHINGTON, STATE OF; Dept. of Transportation, OLYMPIA, WA. More information available from US FCC via Universal Licensing System and Coast Guard Vessel Documentation Center.

Last reported at 2017-Oct-22 10:00 UTC. Time now 2017-Oct-22 10:31 UTC.
Position N 47°34' W 122°37'.

Length 116 m; draft 5.6 m.

Type: Passenger vessel. MMSI: 366773030.

Date/timePositionNaut miles runAvg speedWind from/ knotsBaromVisibWave heightAir tempDewpointWater temp
2017-Oct-22 10:00N 47°34' W 122°37'0 0.0
2017-Oct-22 09:30N 47°34' W 122°37'0 0.0
2017-Oct-22 09:00N 47°34' W 122°37'0 0.0
2017-Oct-22 08:30N 47°34' W 122°37'0 0.0
2017-Oct-22 08:00N 47°34' W 122°37'0 0.0
2017-Oct-22 07:30N 47°34' W 122°37'0 0.0
2017-Oct-22 07:00N 47°34' W 122°37'0 0.0
2017-Oct-22 06:30N 47°34' W 122°37'0 0.0
2017-Oct-22 06:00N 47°34' W 122°37'0 0.0
2017-Oct-22 05:30N 47°34' W 122°37'1 1.0
2017-Oct-22 05:01N 47°33' W 122°37'510.8
2017-Oct-22 04:31N 47°35' W 122°29'611.8
2017-Oct-22 04:00N 47°36' W 122°20'510.2
2017-Oct-22 03:30N 47°35' W 122°27'612.8
2017-Oct-22 03:00N 47°34' W 122°37'2 4.7
2017-Oct-22 02:31N 47°35' W 122°34'713.2
2017-Oct-22 02:00N 47°36' W 122°25'3 5.8
2017-Oct-22 01:30N 47°36' W 122°20'713.9
2017-Oct-22 01:00N 47°34' W 122°30'5 9.9
2017-Oct-22 00:31N 47°34' W 122°38'2 4.9
2017-Oct-22 00:01N 47°35' W 122°35'714.6
2017-Oct-21 23:31N 47°36' W 122°24'2 4.4
2017-Oct-21 23:00N 47°36' W 122°21'714.2
2017-Oct-21 22:30N 47°34' W 122°30'5 9.5
2017-Oct-21 22:00N 47°34' W 122°38'0 0.0
2017-Oct-21 21:30N 47°34' W 122°38'4 7.9
2017-Oct-21 21:00N 47°34' W 122°32'815.6
2017-Oct-21 20:30N 47°36' W 122°20'4 7.6
2017-Oct-21 20:00N 47°35' W 122°26'613.0
2017-Oct-21 19:30N 47°34' W 122°35'1 2.6
2017-Oct-21 19:01N 47°34' W 122°37'612.5
2017-Oct-21 18:31N 47°35' W 122°28'510.0
2017-Oct-21 18:00N 47°36' W 122°20'2 4.9
2017-Oct-21 17:31N 47°36' W 122°24'612.9
2017-Oct-21 17:01N 47°35' W 122°34'3 6.4
2017-Oct-21 16:30N 47°34' W 122°38'4 7.6
2017-Oct-21 16:01N 47°34' W 122°32'815.6
2017-Oct-21 15:30N 47°36' W 122°20'4 7.3
2017-Oct-21 15:01N 47°35' W 122°26'8 8.2
2017-Oct-21 14:00N 47°34' W 122°38'4 8.1
2017-Oct-21 13:30N 47°34' W 122°32'815.4
2017-Oct-21 13:00N 47°36' W 122°20'3 7.0
2017-Oct-21 12:31N 47°36' W 122°25'612.6
2017-Oct-21 12:00N 47°35' W 122°35'2 4.3
2017-Oct-21 11:30N 47°34' W 122°37'0 0.0
2017-Oct-21 11:00N 47°34' W 122°37'0 0.0
2017-Oct-21 10:30N 47°34' W 122°37'0 0.0
2017-Oct-21 10:00N 47°34' W 122°37'0 0.0
2017-Oct-21 09:30N 47°34' W 122°37'0 0.0
2017-Oct-21 09:00N 47°34' W 122°37'0 0.0
2017-Oct-21 08:30N 47°34' W 122°37'0 0.0
2017-Oct-21 08:00N 47°34' W 122°37'0 0.0
2017-Oct-21 07:30N 47°34' W 122°37'0 0.0
2017-Oct-21 07:00N 47°34' W 122°37'0 0.0
2017-Oct-21 06:30N 47°34' W 122°37'0 0.0
2017-Oct-21 06:00N 47°34' W 122°37'0 0.0
2017-Oct-21 05:31N 47°34' W 122°37'0 0.2
2017-Oct-21 05:00N 47°34' W 122°37'510.9
2017-Oct-21 04:30N 47°34' W 122°29'610.5
2017-Oct-21 03:54N 47°36' W 122°20'411.0
2017-Oct-21 03:31N 47°35' W 122°27'713.4
2017-Oct-21 02:59N 47°33' W 122°37'1 2.9
2017-Oct-21 02:30N 47°34' W 122°36'713.1
2017-Oct-21 02:00N 47°35' W 122°26'4 7.8
2017-Oct-21 01:31N 47°36' W 122°20'612.8
2017-Oct-21 01:00N 47°34' W 122°29'510.9
2017-Oct-21 00:30N 47°34' W 122°38'3 5.4
2017-Oct-21 00:00N 47°35' W 122°34'714.5
2017-Oct-20 23:30N 47°36' W 122°24'2 4.1
2017-Oct-20 22:59N 47°36' W 122°20'613.1
2017-Oct-20 22:30N 47°34' W 122°29'611.0
2017-Oct-20 22:00N 47°34' W 122°38'0 0.0
2017-Oct-20 21:30N 47°34' W 122°38'510.6
2017-Oct-20 21:00N 47°34' W 122°30'712.7
2017-Oct-20 20:29N 47°36' W 122°20'4 8.8
2017-Oct-20 20:01N 47°35' W 122°26'713.2
2017-Oct-20 19:29N 47°34' W 122°37'1 2.7
2017-Oct-20 19:00N 47°35' W 122°35'612.1
2017-Oct-20 18:30N 47°36' W 122°26'4 8.2
2017-Oct-20 18:00N 47°36' W 122°20'2 4.6
2017-Oct-20 17:30N 47°36' W 122°24'713.3
2017-Oct-20 17:00N 47°35' W 122°34'3 6.2
2017-Oct-20 16:30N 47°34' W 122°38'5 9.2
2017-Oct-20 16:00N 47°34' W 122°31'714.4
2017-Oct-20 15:30N 47°36' W 122°20'4 7.4
2017-Oct-20 15:01N 47°35' W 122°26'612.5
2017-Oct-20 14:31N 47°35' W 122°35'3 3.3
2017-Oct-20 13:30N 47°34' W 122°30'713.7
2017-Oct-20 13:01N 47°36' W 122°20'4 7.9
2017-Oct-20 12:31N 47°35' W 122°26'612.2
2017-Oct-20 12:00N 47°35' W 122°35'2 3.6
2017-Oct-20 11:30N 47°34' W 122°37'0 0.0
2017-Oct-20 11:00N 47°34' W 122°37'0 0.0
2017-Oct-20 10:30N 47°34' W 122°37'0 0.0
2017-Oct-20 10:00N 47°34' W 122°37'0 0.0
2017-Oct-20 09:30N 47°34' W 122°37'0 0.0
2017-Oct-20 09:00N 47°34' W 122°37'0 0.0
2017-Oct-20 08:30N 47°34' W 122°37'0 0.0
2017-Oct-20 08:00N 47°34' W 122°37'0 0.0
2017-Oct-20 07:30N 47°34' W 122°37'0 0.0
2017-Oct-20 07:00N 47°34' W 122°37'0 0.0
2017-Oct-20 06:30N 47°34' W 122°37'0 0.0
2017-Oct-20 06:00N 47°34' W 122°37'0 0.0
2017-Oct-20 05:30N 47°34' W 122°37'1 2.3
2017-Oct-20 05:01N 47°34' W 122°36'510.8
2017-Oct-20 04:30N 47°35' W 122°28'510.1
2017-Oct-20 03:59N 47°36' W 122°20'4 9.0
2017-Oct-20 03:31N 47°35' W 122°27'713.7
2017-Oct-20 03:00N 47°34' W 122°37'2 3.2
2017-Oct-20 02:30N 47°35' W 122°35'612.7
2017-Oct-20 02:01N 47°36' W 122°26'4 6.8
2017-Oct-20 01:29N 47°36' W 122°20'612.8
2017-Oct-20 01:00N 47°34' W 122°29'611.5
2017-Oct-20 00:31N 47°34' W 122°38'3 5.8
2017-Oct-20 00:00N 47°35' W 122°34'713.8
2017-Oct-19 23:30N 47°36' W 122°24'2 4.5
2017-Oct-19 23:00N 47°36' W 122°20'612.6
2017-Oct-19 22:31N 47°34' W 122°29'611.2
2017-Oct-19 22:01N 47°34' W 122°38'0 0.0
2017-Oct-19 21:31N 47°34' W 122°38'4 8.2
2017-Oct-19 21:00N 47°34' W 122°31'815.4
2017-Oct-19 20:31N 47°36' W 122°20'4 7.8
2017-Oct-19 20:00N 47°35' W 122°26'713.0
2017-Oct-19 19:30N 47°34' W 122°36'1 2.3
2017-Oct-19 19:00N 47°34' W 122°37'612.7
2017-Oct-19 18:30N 47°35' W 122°28'5 9.8
2017-Oct-19 18:00N 47°36' W 122°20'2 4.3
2017-Oct-19 17:30N 47°36' W 122°24'714.7
2017-Oct-19 17:01N 47°35' W 122°34'3 5.2
2017-Oct-19 16:30N 47°34' W 122°38'510.8
2017-Oct-19 16:01N 47°34' W 122°30'612.7
2017-Oct-19 15:30N 47°36' W 122°20'4 7.6
2017-Oct-19 15:00N 47°35' W 122°26'612.7
2017-Oct-19 14:30N 47°35' W 122°35'2 3.6
2017-Oct-19 14:00N 47°34' W 122°38'4 8.8
2017-Oct-19 13:30N 47°34' W 122°31'714.9
2017-Oct-19 13:00N 47°36' W 122°20'4 8.0
2017-Oct-19 12:31N 47°35' W 122°26'612.3
2017-Oct-19 12:00N 47°35' W 122°35'2 3.3
2017-Oct-19 11:30N 47°34' W 122°37'0 0.0
2017-Oct-19 11:00N 47°34' W 122°37'0 0.0
2017-Oct-19 10:30N 47°34' W 122°37'0 0.0
2017-Oct-19 10:00N 47°34' W 122°37'0 0.0
2017-Oct-19 09:31N 47°34' W 122°37'0 0.0
2017-Oct-19 09:01N 47°34' W 122°37'4 7.6
2017-Oct-19 08:31N 47°34' W 122°32'815.8
2017-Oct-19 08:01N 47°36' W 122°20'4 8.2
2017-Oct-19 07:30N 47°35' W 122°26'713.2
2017-Oct-19 07:00N 47°34' W 122°36'1 2.0
2017-Oct-19 06:30N 47°34' W 122°37'0 0.0
2017-Oct-19 06:00N 47°34' W 122°37'0 0.0
2017-Oct-19 05:30N 47°34' W 122°37'0 0.3
2017-Oct-19 05:00N 47°34' W 122°37'510.9
2017-Oct-19 04:30N 47°34' W 122°29'612.1
2017-Oct-19 03:59N 47°36' W 122°20'510.3
2017-Oct-19 03:30N 47°35' W 122°27'712.9
2017-Oct-19 02:59N 47°34' W 122°37'3 5.3
2017-Oct-19 02:31N 47°35' W 122°34'612.3
2017-Oct-19 02:01N 47°36' W 122°25'3 6.5
2017-Oct-19 01:30N 47°36' W 122°20'714.2
2017-Oct-19 01:00N 47°34' W 122°30'510.0
2017-Oct-19 00:30N 47°34' W 122°38'3 6.9
2017-Oct-19 00:01N 47°36' W 122°33'612.9
2017-Oct-18 23:30N 47°36' W 122°24'2 4.5
2017-Oct-18 23:00N 47°36' W 122°20'613.2
2017-Oct-18 22:30N 47°34' W 122°29'510.8
2017-Oct-18 22:00N 47°34' W 122°37'0 0.1
2017-Oct-18 21:31N 47°34' W 122°38'510.5
2017-Oct-18 21:00N 47°34' W 122°30'713.1
2017-Oct-18 20:31N 47°36' W 122°20'5 9.0
2017-Oct-18 20:00N 47°35' W 122°27'611.4
2017-Oct-18 19:30N 47°35' W 122°35'2 3.4
2017-Oct-18 19:00N 47°33' W 122°37'713.7
2017-Oct-18 18:30N 47°35' W 122°27'5 9.2
2017-Oct-18 18:00N 47°36' W 122°20'3 5.5
2017-Oct-18 17:30N 47°36' W 122°24'612.7
2017-Oct-18 17:00N 47°35' W 122°34'3 6.2
2017-Oct-18 16:30N 47°34' W 122°38'4 7.8
2017-Oct-18 16:00N 47°34' W 122°32'815.8
2017-Oct-18 15:30N 47°36' W 122°20'4 7.3
2017-Oct-18 15:00N 47°35' W 122°26'8 8.1
2017-Oct-18 14:00N 47°34' W 122°38'510.6
2017-Oct-18 13:30N 47°34' W 122°30'713.1
2017-Oct-18 13:00N 47°36' W 122°20'4 8.6
2017-Oct-18 12:31N 47°35' W 122°27'612.3
2017-Oct-18 12:00N 47°34' W 122°36'1 2.6
2017-Oct-18 11:30N 47°34' W 122°37'0 0.0
2017-Oct-18 11:00N 47°34' W 122°37'0 0.0
2017-Oct-18 10:30N 47°34' W 122°37'0 0.0
2017-Oct-18 10:00N 47°34' W 122°37'0 0.0
2017-Oct-18 09:30N 47°34' W 122°37'0 0.0
2017-Oct-18 09:00N 47°34' W 122°37'0 0.0
2017-Oct-18 08:30N 47°34' W 122°37'0 0.0
2017-Oct-18 08:00N 47°34' W 122°37'0 0.0
2017-Oct-18 07:30N 47°34' W 122°37'0 0.0
2017-Oct-18 07:00N 47°34' W 122°37'0 0.0
2017-Oct-18 06:30N 47°34' W 122°37'0 0.0
2017-Oct-18 06:00N 47°34' W 122°37'0 0.0
2017-Oct-18 05:30N 47°34' W 122°37'0 0.0
2017-Oct-18 05:00N 47°34' W 122°37'510.3
2017-Oct-18 04:30N 47°34' W 122°30'711.9
2017-Oct-18 03:57N 47°36' W 122°20'4 9.7
2017-Oct-18 03:30N 47°35' W 122°26'713.5
2017-Oct-18 03:00N 47°34' W 122°36'1 1.9
2017-Oct-18 02:30N 47°34' W 122°35'613.0
2017-Oct-18 02:01N 47°35' W 122°26'4 7.3
2017-Oct-18 01:30N 47°36' W 122°20'612.9
2017-Oct-18 01:01N 47°34' W 122°29'610.8
2017-Oct-18 00:29N 47°34' W 122°38'3 5.9
2017-Oct-18 00:01N 47°35' W 122°34'713.8
2017-Oct-17 23:31N 47°36' W 122°24'2 4.7
2017-Oct-17 23:00N 47°36' W 122°20'713.3
2017-Oct-17 22:31N 47°34' W 122°30'510.6
2017-Oct-17 22:00N 47°34' W 122°38'0 0.0
2017-Oct-17 21:30N 47°34' W 122°38'4 8.8
2017-Oct-17 21:01N 47°34' W 122°31'714.9
2017-Oct-17 20:30N 47°36' W 122°20'4 8.0
2017-Oct-17 20:01N 47°35' W 122°26'612.3
2017-Oct-17 19:30N 47°35' W 122°35'2 3.6
2017-Oct-17 19:00N 47°33' W 122°37'713.5
2017-Oct-17 18:30N 47°35' W 122°28'5 9.9
2017-Oct-17 18:00N 47°36' W 122°20'2 3.6
2017-Oct-17 17:30N 47°36' W 122°23'713.7
2017-Oct-17 17:01N 47°36' W 122°33'3 7.0
2017-Oct-17 16:30N 47°34' W 122°38'4 8.8
2017-Oct-17 16:01N 47°34' W 122°31'714.8
2017-Oct-17 15:30N 47°36' W 122°20'4 7.1
2017-Oct-17 15:01N 47°35' W 122°25'713.6
2017-Oct-17 14:30N 47°34' W 122°35'2 3.0
2017-Oct-17 14:00N 47°34' W 122°37'611.5
2017-Oct-17 13:30N 47°35' W 122°29'611.9
2017-Oct-17 13:01N 47°36' W 122°20'3 7.0
2017-Oct-17 12:30N 47°36' W 122°26'713.0
2017-Oct-17 12:00N 47°35' W 122°35'2 3.6
2017-Oct-17 11:30N 47°34' W 122°37'0 0.0
2017-Oct-17 11:00N 47°34' W 122°37'0 0.0
2017-Oct-17 10:30N 47°34' W 122°37'0 0.0
2017-Oct-17 10:00N 47°34' W 122°37'0 0.0
2017-Oct-17 09:30N 47°34' W 122°37'0 0.0
2017-Oct-17 09:00N 47°34' W 122°37'0 0.0
2017-Oct-17 08:30N 47°34' W 122°37'0 0.0
2017-Oct-17 08:00N 47°34' W 122°37'0 0.0
2017-Oct-17 07:30N 47°34' W 122°37'0 0.0
2017-Oct-17 07:00N 47°34' W 122°37'0 0.0
2017-Oct-17 06:30N 47°34' W 122°37'0 0.0
2017-Oct-17 06:00N 47°34' W 122°37'0 0.0
2017-Oct-17 05:30N 47°34' W 122°37'0 0.0
2017-Oct-17 05:00N 47°34' W 122°37'510.8
2017-Oct-17 04:31N 47°34' W 122°30'612.7
2017-Oct-17 04:00N 47°36' W 122°20'4 8.4
2017-Oct-17 03:30N 47°35' W 122°26'713.6
2017-Oct-17 03:00N 47°34' W 122°36'2 3.2
2017-Oct-17 02:30N 47°35' W 122°35'612.5
2017-Oct-17 02:00N 47°36' W 122°26'4 7.0
2017-Oct-17 01:30N 47°36' W 122°20'612.2
2017-Oct-17 01:00N 47°34' W 122°29'611.8
2017-Oct-17 00:31N 47°34' W 122°38'3 5.8
2017-Oct-17 00:00N 47°35' W 122°34'713.6
2017-Oct-16 23:30N 47°36' W 122°24'2 4.6
2017-Oct-16 23:00N 47°36' W 122°20'612.3
2017-Oct-16 22:31N 47°34' W 122°29'611.5
2017-Oct-16 22:00N 47°34' W 122°38'0 0.0
2017-Oct-16 21:30N 47°34' W 122°38'5 9.6
2017-Oct-16 21:01N 47°34' W 122°31'714.3
2017-Oct-16 20:30N 47°36' W 122°20'4 7.5
2017-Oct-16 20:01N 47°35' W 122°26'612.5
2017-Oct-16 19:30N 47°35' W 122°35'2 3.9
2017-Oct-16 19:00N 47°33' W 122°37'713.6
2017-Oct-16 18:30N 47°35' W 122°27'5 9.7
2017-Oct-16 18:00N 47°36' W 122°20'2 4.5
2017-Oct-16 17:31N 47°36' W 122°24'713.4
2017-Oct-16 17:00N 47°35' W 122°34'3 5.8
2017-Oct-16 16:30N 47°33' W 122°37'5 9.2
2017-Oct-16 16:00N 47°34' W 122°30'713.4
2017-Oct-16 15:30N 47°36' W 122°20'3 6.2
2017-Oct-16 15:00N 47°36' W 122°25'9 8.8
2017-Oct-16 14:00N 47°34' W 122°38'4 8.6
2017-Oct-16 13:31N 47°34' W 122°31'814.1
2017-Oct-16 12:58N 47°36' W 122°20'3 6.0
2017-Oct-16 12:31N 47°36' W 122°24'714.1
2017-Oct-16 12:01N 47°35' W 122°35'2 4.3
2017-Oct-16 11:30N 47°34' W 122°37'0 0.0
2017-Oct-16 11:01N 47°34' W 122°37'0 0.0
2017-Oct-16 10:30N 47°34' W 122°37'0 0.0
2017-Oct-16 10:00N 47°34' W 122°37'0 0.0
2017-Oct-16 09:30N 47°34' W 122°37'0 0.0
2017-Oct-16 09:00N 47°34' W 122°37'0 0.0
2017-Oct-16 08:30N 47°34' W 122°37'0 0.0
2017-Oct-16 08:00N 47°34' W 122°37'0 0.0
2017-Oct-16 07:30N 47°34' W 122°37'0 0.0
2017-Oct-16 07:00N 47°34' W 122°37'0 0.0
2017-Oct-16 06:30N 47°34' W 122°37'0 0.0
2017-Oct-16 06:00N 47°34' W 122°37'0 0.0
2017-Oct-16 05:30N 47°34' W 122°37'0 0.5
2017-Oct-16 05:00N 47°34' W 122°37'611.9
2017-Oct-16 04:30N 47°35' W 122°29'611.0
2017-Oct-16 03:59N 47°36' W 122°20'613.1
2017-Oct-16 03:30N 47°34' W 122°29'611.2
2017-Oct-16 03:00N 47°34' W 122°38'3 5.9
2017-Oct-16 02:30N 47°35' W 122°34'612.8
2017-Oct-16 02:00N 47°36' W 122°24'3 5.5
2017-Oct-16 01:30N 47°36' W 122°20'714.4
2017-Oct-16 01:00N 47°34' W 122°30'5 9.2
2017-Oct-16 00:30N 47°34' W 122°38'3 6.0
2017-Oct-16 00:00N 47°35' W 122°34'713.7
2017-Oct-15 23:30N 47°36' W 122°24'2 4.5
2017-Oct-15 23:00N 47°36' W 122°20'612.7
2017-Oct-15 22:31N 47°34' W 122°29'610.9
2017-Oct-15 22:00N 47°34' W 122°38'0 0.0
2017-Oct-15 21:30N 47°34' W 122°38'4 7.5
2017-Oct-15 21:01N 47°34' W 122°32'816.3
2017-Oct-15 20:30N 47°36' W 122°20'4 7.7
2017-Oct-15 20:00N 47°35' W 122°26'612.7
2017-Oct-15 19:30N 47°35' W 122°35'2 3.6
2017-Oct-15 19:01N 47°33' W 122°37'713.3
2017-Oct-15 18:30N 47°35' W 122°28'510.1
2017-Oct-15 18:00N 47°36' W 122°20'3 5.3
2017-Oct-15 17:30N 47°36' W 122°24'612.8
2017-Oct-15 17:00N 47°35' W 122°34'3 6.0
2017-Oct-15 16:30N 47°34' W 122°38'4 8.5
2017-Oct-15 16:00N 47°34' W 122°31'815.3
2017-Oct-15 15:30N 47°36' W 122°20'4 7.2
2017-Oct-15 15:00N 47°35' W 122°26'8 8.2
2017-Oct-15 14:01N 47°34' W 122°38'5 9.3
2017-Oct-15 13:30N 47°34' W 122°31'714.5
2017-Oct-15 13:01N 47°36' W 122°20'1 1.2
2017-Oct-15 12:30N 47°36' W 122°21'815.2
2017-Oct-15 12:00N 47°35' W 122°32'4 7.2
2017-Oct-15 11:30N 47°34' W 122°37'0 0.0
2017-Oct-15 11:00N 47°34' W 122°37'0 0.0
2017-Oct-15 10:30N 47°34' W 122°37'0 0.0
2017-Oct-15 10:00N 47°34' W 122°37'0 0.0
2017-Oct-15 09:30N 47°34' W 122°37'0 0.0
2017-Oct-15 09:00N 47°34' W 122°37'0 0.0
2017-Oct-15 08:30N 47°34' W 122°37'0 0.0
2017-Oct-15 08:00N 47°34' W 122°37'0 0.0
2017-Oct-15 07:30N 47°34' W 122°37'0 0.0
2017-Oct-15 07:00N 47°34' W 122°37'0 0.0
2017-Oct-15 06:30N 47°34' W 122°37'0 0.0
2017-Oct-15 06:00N 47°34' W 122°37'0 0.0
2017-Oct-15 05:31N 47°34' W 122°37'0 0.0
2017-Oct-15 05:00N 47°34' W 122°37'611.2
2017-Oct-15 04:30N 47°34' W 122°29'610.6
2017-Oct-15 03:55N 47°36' W 122°20'410.3
2017-Oct-15 03:31N 47°35' W 122°27'713.4
2017-Oct-15 03:00N 47°34' W 122°36'1 2.0
2017-Oct-15 02:30N 47°34' W 122°36'713.2
2017-Oct-15 02:00N 47°35' W 122°26'4 7.3
2017-Oct-15 01:29N 47°36' W 122°20'612.9
2017-Oct-15 01:01N 47°34' W 122°29'611.4
2017-Oct-15 00:30N 47°34' W 122°38'3 6.9
2017-Oct-15 00:01N 47°36' W 122°33'713.7
2017-Oct-14 23:30N 47°36' W 122°23'2 3.7
2017-Oct-14 23:00N 47°36' W 122°20'612.6
2017-Oct-14 22:30N 47°34' W 122°29'611.1
2017-Oct-14 22:00N 47°34' W 122°38'0 0.0
2017-Oct-14 21:29N 47°34' W 122°38'510.5
2017-Oct-14 21:00N 47°34' W 122°30'713.4
2017-Oct-14 20:30N 47°36' W 122°20'4 7.6
2017-Oct-14 20:00N 47°35' W 122°26'612.5
2017-Oct-14 19:30N 47°35' W 122°35'2 3.7
2017-Oct-14 19:00N 47°33' W 122°37'713.4
2017-Oct-14 18:30N 47°35' W 122°28'5 9.8
2017-Oct-14 18:00N 47°36' W 122°20'3 5.4
2017-Oct-14 17:31N 47°36' W 122°24'612.6
2017-Oct-14 17:01N 47°35' W 122°34'3 6.3
2017-Oct-14 16:31N 47°34' W 122°38'4 8.4
2017-Oct-14 16:01N 47°34' W 122°31'815.2
2017-Oct-14 15:30N 47°36' W 122°20'3 6.7
2017-Oct-14 15:01N 47°36' W 122°25'713.3
2017-Oct-14 14:31N 47°35' W 122°35'2 3.8
2017-Oct-14 14:00N 47°34' W 122°38'4 8.3
2017-Oct-14 13:31N 47°34' W 122°32'815.5
2017-Oct-14 13:00N 47°36' W 122°20'4 7.0
2017-Oct-14 12:31N 47°35' W 122°25'713.2
2017-Oct-14 12:00N 47°35' W 122°35'2 3.4
2017-Oct-14 11:31N 47°34' W 122°37'0 0.0
2017-Oct-14 11:00N 47°34' W 122°37'0 0.0
2017-Oct-14 10:30N 47°34' W 122°37'0 0.0
2017-Oct-14 10:00N 47°34' W 122°37'0 0.0
2017-Oct-14 09:30N 47°34' W 122°37'0 0.0
2017-Oct-14 09:00N 47°34' W 122°37'0 0.0
2017-Oct-14 08:30N 47°34' W 122°37'0 0.0
2017-Oct-14 08:00N 47°34' W 122°37'0 0.0
2017-Oct-14 07:30N 47°34' W 122°37'0 0.0
2017-Oct-14 07:01N 47°34' W 122°37'0 0.0
2017-Oct-14 06:30N 47°34' W 122°37'0 0.0
2017-Oct-14 06:00N 47°34' W 122°37'0 0.0
2017-Oct-14 05:30N 47°34' W 122°37'0 0.0
2017-Oct-14 05:00N 47°34' W 122°37'611.3
2017-Oct-14 04:31N 47°35' W 122°29'612.2
2017-Oct-14 04:00N 47°36' W 122°20'5 9.6
2017-Oct-14 03:31N 47°35' W 122°27'612.4
2017-Oct-14 03:01N 47°34' W 122°36'1 2.4
2017-Oct-14 02:30N 47°35' W 122°35'713.2
2017-Oct-14 02:01N 47°35' W 122°25'3 5.6
2017-Oct-14 01:25N 47°36' W 122°21'615.6
2017-Oct-14 01:01N 47°34' W 122°30'510.5
2017-Oct-14 00:30N 47°34' W 122°38'3 6.7
2017-Oct-14 00:00N 47°36' W 122°33'713.6
2017-Oct-13 23:30N 47°36' W 122°24'2 4.3
2017-Oct-13 23:00N 47°36' W 122°20'612.0
2017-Oct-13 22:30N 47°34' W 122°29'611.6
2017-Oct-13 22:00N 47°34' W 122°38'0 0.0
2017-Oct-13 21:31N 47°34' W 122°38'4 8.2
2017-Oct-13 21:00N 47°34' W 122°31'815.5
2017-Oct-13 20:30N 47°36' W 122°20'4 8.0
2017-Oct-13 20:00N 47°35' W 122°26'612.4
2017-Oct-13 19:31N 47°34' W 122°35'2 3.4
2017-Oct-13 19:00N 47°34' W 122°37'612.8
2017-Oct-13 18:31N 47°35' W 122°28'510.8
2017-Oct-13 18:00N 47°36' W 122°20'3 5.9
2017-Oct-13 17:30N 47°36' W 122°25'612.3
2017-Oct-13 17:00N 47°35' W 122°34'3 6.0
2017-Oct-13 16:31N 47°34' W 122°38'5 9.0
2017-Oct-13 16:01N 47°34' W 122°31'714.7
2017-Oct-13 15:30N 47°36' W 122°20'4 7.9
2017-Oct-13 15:00N 47°35' W 122°26'612.2
2017-Oct-13 14:31N 47°35' W 122°35'2 3.8
2017-Oct-13 14:00N 47°34' W 122°38'4 8.3
2017-Oct-13 13:31N 47°34' W 122°31'815.3
2017-Oct-13 13:00N 47°36' W 122°20'3 6.4
2017-Oct-13 12:31N 47°36' W 122°25'713.6
2017-Oct-13 12:01N 47°35' W 122°35'2 3.8
2017-Oct-13 11:30N 47°34' W 122°37'0 0.0
2017-Oct-13 11:00N 47°34' W 122°37'0 0.0
2017-Oct-13 10:30N 47°34' W 122°37'0 0.0
2017-Oct-13 10:00N 47°34' W 122°37'0 0.0
2017-Oct-13 09:30N 47°34' W 122°37'0 0.0
2017-Oct-13 09:00N 47°34' W 122°37'0 0.0
2017-Oct-13 08:30N 47°34' W 122°37'0 0.0
2017-Oct-13 08:00N 47°34' W 122°37'0 0.0
2017-Oct-13 07:30N 47°34' W 122°37'0 0.0
2017-Oct-13 07:00N 47°34' W 122°37'0 0.0
2017-Oct-13 06:31N 47°34' W 122°37'0 0.0
2017-Oct-13 06:00N 47°34' W 122°37'0 0.0
2017-Oct-13 05:30N 47°34' W 122°37'0 0.0
2017-Oct-13 05:00N 47°34' W 122°37'611.6
2017-Oct-13 04:31N 47°35' W 122°29'611.9
2017-Oct-13 04:00N 47°36' W 122°20'510.5
2017-Oct-13 03:30N 47°34' W 122°28'612.0
2017-Oct-13 03:01N 47°34' W 122°36'1 1.5
2017-Oct-13 02:30N 47°34' W 122°36'713.7
2017-Oct-13 02:00N 47°35' W 122°26'4 7.6
2017-Oct-13 01:30N 47°36' W 122°20'612.7
2017-Oct-13 01:00N 47°34' W 122°29'611.2
2017-Oct-13 00:31N 47°34' W 122°38'3 5.6
2017-Oct-13 00:01N 47°35' W 122°34'714.0
2017-Oct-12 23:30N 47°36' W 122°24'2 4.5
2017-Oct-12 23:00N 47°36' W 122°20'611.7
2017-Oct-12 22:30N 47°34' W 122°29'612.1
2017-Oct-12 22:01N 47°34' W 122°38'0 0.0
2017-Oct-12 21:30N 47°34' W 122°38'4 8.3
2017-Oct-12 21:01N 47°34' W 122°31'815.4
2017-Oct-12 20:30N 47°36' W 122°20'3 6.2
2017-Oct-12 20:00N 47°36' W 122°25'713.5
2017-Oct-12 19:30N 47°35' W 122°35'2 4.4
2017-Oct-12 19:01N 47°33' W 122°37'713.2
2017-Oct-12 18:30N 47°35' W 122°28'510.1
2017-Oct-12 18:00N 47°36' W 122°20'3 5.7
2017-Oct-12 17:31N 47°36' W 122°25'612.5
2017-Oct-12 17:01N 47°35' W 122°34'3 5.9
2017-Oct-12 16:30N 47°34' W 122°38'5 9.3
2017-Oct-12 16:00N 47°34' W 122°31'714.3
2017-Oct-12 15:30N 47°36' W 122°20'4 8.2
2017-Oct-12 15:00N 47°35' W 122°26'612.2
2017-Oct-12 14:30N 47°35' W 122°35'2 3.4
2017-Oct-12 14:00N 47°34' W 122°38'4 8.3
2017-Oct-12 13:30N 47°34' W 122°31'815.4
2017-Oct-12 13:00N 47°36' W 122°20'4 7.1
2017-Oct-12 12:30N 47°35' W 122°26'612.9
2017-Oct-12 12:00N 47°35' W 122°35'2 3.8
2017-Oct-12 11:30N 47°34' W 122°37'0 0.0
2017-Oct-12 11:00N 47°34' W 122°37'0 0.0
2017-Oct-12 10:31N 47°34' W 122°37'0 0.0
2017-Oct-12 10:01N 47°34' W 122°37'  
Track history (hours):
 
Tides and Currents Weather Stations Pressure Air Temp Water Temp Dewpoint Dewpoint Depression Visibility Wind Speed Wind Dir Waves Ship Positions

Hyak

Owner: WASHINGTON, STATE OF; Dept. of Transportation, OLYMPIA, WA. More information available from US FCC via Universal Licensing System and Coast Guard Vessel Documentation Center.

Last reported at 2017-Oct-22 10:00 UTC. Time now 2017-Oct-22 10:31 UTC.
Position N 47°34' W 122°37'.

Length 116 m; draft 5.6 m.

Type: Passenger vessel. MMSI: 366773030.

Date/timePositionNaut miles runAvg speedWind from/ knotsBaromVisibWave heightAir tempDewpointWater temp
2017-Oct-22 10:00N 47°34' W 122°37'0 0.0
2017-Oct-22 09:30N 47°34' W 122°37'0 0.0
2017-Oct-22 09:00N 47°34' W 122°37'0 0.0
2017-Oct-22 08:30N 47°34' W 122°37'0 0.0
2017-Oct-22 08:00N 47°34' W 122°37'0 0.0
2017-Oct-22 07:30N 47°34' W 122°37'0 0.0
2017-Oct-22 07:00N 47°34' W 122°37'0 0.0
2017-Oct-22 06:30N 47°34' W 122°37'0 0.0
2017-Oct-22 06:00N 47°34' W 122°37'0 0.0
2017-Oct-22 05:30N 47°34' W 122°37'1 1.0
2017-Oct-22 05:01N 47°33' W 122°37'510.8
2017-Oct-22 04:31N 47°35' W 122°29'611.8
2017-Oct-22 04:00N 47°36' W 122°20'510.2
2017-Oct-22 03:30N 47°35' W 122°27'612.8
2017-Oct-22 03:00N 47°34' W 122°37'2 4.7
2017-Oct-22 02:31N 47°35' W 122°34'713.2
2017-Oct-22 02:00N 47°36' W 122°25'3 5.8
2017-Oct-22 01:30N 47°36' W 122°20'713.9
2017-Oct-22 01:00N 47°34' W 122°30'5 9.9
2017-Oct-22 00:31N 47°34' W 122°38'2 4.9
2017-Oct-22 00:01N 47°35' W 122°35'714.6
2017-Oct-21 23:31N 47°36' W 122°24'2 4.4
2017-Oct-21 23:00N 47°36' W 122°21'714.2
2017-Oct-21 22:30N 47°34' W 122°30'5 9.5
2017-Oct-21 22:00N 47°34' W 122°38'0 0.0
2017-Oct-21 21:30N 47°34' W 122°38'4 7.9
2017-Oct-21 21:00N 47°34' W 122°32'815.6
2017-Oct-21 20:30N 47°36' W 122°20'4 7.6
2017-Oct-21 20:00N 47°35' W 122°26'613.0
2017-Oct-21 19:30N 47°34' W 122°35'1 2.6
2017-Oct-21 19:01N 47°34' W 122°37'612.5
2017-Oct-21 18:31N 47°35' W 122°28'510.0
2017-Oct-21 18:00N 47°36' W 122°20'2 4.9
2017-Oct-21 17:31N 47°36' W 122°24'612.9
2017-Oct-21 17:01N 47°35' W 122°34'3 6.4
2017-Oct-21 16:30N 47°34' W 122°38'4 7.6
2017-Oct-21 16:01N 47°34' W 122°32'815.6
2017-Oct-21 15:30N 47°36' W 122°20'4 7.3
2017-Oct-21 15:01N 47°35' W 122°26'8 8.2
2017-Oct-21 14:00N 47°34' W 122°38'4 8.1
2017-Oct-21 13:30N 47°34' W 122°32'815.4
2017-Oct-21 13:00N 47°36' W 122°20'3 7.0
2017-Oct-21 12:31N 47°36' W 122°25'612.6
2017-Oct-21 12:00N 47°35' W 122°35'2 4.3
2017-Oct-21 11:30N 47°34' W 122°37'0 0.0
2017-Oct-21 11:00N 47°34' W 122°37'0 0.0
2017-Oct-21 10:30N 47°34' W 122°37'0 0.0
2017-Oct-21 10:00N 47°34' W 122°37'0 0.0
2017-Oct-21 09:30N 47°34' W 122°37'0 0.0
2017-Oct-21 09:00N 47°34' W 122°37'0 0.0
2017-Oct-21 08:30N 47°34' W 122°37'0 0.0
2017-Oct-21 08:00N 47°34' W 122°37'0 0.0
2017-Oct-21 07:30N 47°34' W 122°37'0 0.0
2017-Oct-21 07:00N 47°34' W 122°37'0 0.0
2017-Oct-21 06:30N 47°34' W 122°37'0 0.0
2017-Oct-21 06:00N 47°34' W 122°37'0 0.0
2017-Oct-21 05:31N 47°34' W 122°37'0 0.2
2017-Oct-21 05:00N 47°34' W 122°37'510.9
2017-Oct-21 04:30N 47°34' W 122°29'610.5
2017-Oct-21 03:54N 47°36' W 122°20'411.0
2017-Oct-21 03:31N 47°35' W 122°27'713.4
2017-Oct-21 02:59N 47°33' W 122°37'1 2.9
2017-Oct-21 02:30N 47°34' W 122°36'713.1
2017-Oct-21 02:00N 47°35' W 122°26'4 7.8
2017-Oct-21 01:31N 47°36' W 122°20'612.8
2017-Oct-21 01:00N 47°34' W 122°29'510.9
2017-Oct-21 00:30N 47°34' W 122°38'3 5.4
2017-Oct-21 00:00N 47°35' W 122°34'714.5
2017-Oct-20 23:30N 47°36' W 122°24'2 4.1
2017-Oct-20 22:59N 47°36' W 122°20'613.1
2017-Oct-20 22:30N 47°34' W 122°29'611.0
2017-Oct-20 22:00N 47°34' W 122°38'0 0.0
2017-Oct-20 21:30N 47°34' W 122°38'510.6
2017-Oct-20 21:00N 47°34' W 122°30'712.7
2017-Oct-20 20:29N 47°36' W 122°20'4 8.8
2017-Oct-20 20:01N 47°35' W 122°26'713.2
2017-Oct-20 19:29N 47°34' W 122°37'1 2.7
2017-Oct-20 19:00N 47°35' W 122°35'612.1
2017-Oct-20 18:30N 47°36' W 122°26'4 8.2
2017-Oct-20 18:00N 47°36' W 122°20'2 4.6
2017-Oct-20 17:30N 47°36' W 122°24'713.3
2017-Oct-20 17:00N 47°35' W 122°34'3 6.2
2017-Oct-20 16:30N 47°34' W 122°38'5 9.2
2017-Oct-20 16:00N 47°34' W 122°31'714.4
2017-Oct-20 15:30N 47°36' W 122°20'4 7.4
2017-Oct-20 15:01N 47°35' W 122°26'612.5
2017-Oct-20 14:31N 47°35' W 122°35'3 3.3
2017-Oct-20 13:30N 47°34' W 122°30'713.7
2017-Oct-20 13:01N 47°36' W 122°20'4 7.9
2017-Oct-20 12:31N 47°35' W 122°26'612.2
2017-Oct-20 12:00N 47°35' W 122°35'2 3.6
2017-Oct-20 11:30N 47°34' W 122°37'0 0.0
2017-Oct-20 11:00N 47°34' W 122°37'0 0.0
2017-Oct-20 10:30N 47°34' W 122°37'0 0.0
2017-Oct-20 10:00N 47°34' W 122°37'0 0.0
2017-Oct-20 09:30N 47°34' W 122°37'0 0.0
2017-Oct-20 09:00N 47°34' W 122°37'0 0.0
2017-Oct-20 08:30N 47°34' W 122°37'0 0.0
2017-Oct-20 08:00N 47°34' W 122°37'0 0.0
2017-Oct-20 07:30N 47°34' W 122°37'0 0.0
2017-Oct-20 07:00N 47°34' W 122°37'0 0.0
2017-Oct-20 06:30N 47°34' W 122°37'0 0.0
2017-Oct-20 06:00N 47°34' W 122°37'0 0.0
2017-Oct-20 05:30N 47°34' W 122°37'1 2.3
2017-Oct-20 05:01N 47°34' W 122°36'510.8
2017-Oct-20 04:30N 47°35' W 122°28'510.1
2017-Oct-20 03:59N 47°36' W 122°20'4 9.0
2017-Oct-20 03:31N 47°35' W 122°27'713.7
2017-Oct-20 03:00N 47°34' W 122°37'2 3.2
2017-Oct-20 02:30N 47°35' W 122°35'612.7
2017-Oct-20 02:01N 47°36' W 122°26'4 6.8
2017-Oct-20 01:29N 47°36' W 122°20'612.8
2017-Oct-20 01:00N 47°34' W 122°29'611.5
2017-Oct-20 00:31N 47°34' W 122°38'3 5.8
2017-Oct-20 00:00N 47°35' W 122°34'713.8
2017-Oct-19 23:30N 47°36' W 122°24'2 4.5
2017-Oct-19 23:00N 47°36' W 122°20'612.6
2017-Oct-19 22:31N 47°34' W 122°29'611.2
2017-Oct-19 22:01N 47°34' W 122°38'0 0.0
2017-Oct-19 21:31N 47°34' W 122°38'4 8.2
2017-Oct-19 21:00N 47°34' W 122°31'815.4
2017-Oct-19 20:31N 47°36' W 122°20'4 7.8
2017-Oct-19 20:00N 47°35' W 122°26'713.0
2017-Oct-19 19:30N 47°34' W 122°36'1 2.3
2017-Oct-19 19:00N 47°34' W 122°37'612.7
2017-Oct-19 18:30N 47°35' W 122°28'5 9.8
2017-Oct-19 18:00N 47°36' W 122°20'2 4.3
2017-Oct-19 17:30N 47°36' W 122°24'714.7
2017-Oct-19 17:01N 47°35' W 122°34'3 5.2
2017-Oct-19 16:30N 47°34' W 122°38'510.8
2017-Oct-19 16:01N 47°34' W 122°30'612.7
2017-Oct-19 15:30N 47°36' W 122°20'4 7.6
2017-Oct-19 15:00N 47°35' W 122°26'612.7
2017-Oct-19 14:30N 47°35' W 122°35'2 3.6
2017-Oct-19 14:00N 47°34' W 122°38'4 8.8
2017-Oct-19 13:30N 47°34' W 122°31'714.9
2017-Oct-19 13:00N 47°36' W 122°20'4 8.0
2017-Oct-19 12:31N 47°35' W 122°26'612.3
2017-Oct-19 12:00N 47°35' W 122°35'2 3.3
2017-Oct-19 11:30N 47°34' W 122°37'0 0.0
2017-Oct-19 11:00N 47°34' W 122°37'0 0.0
2017-Oct-19 10:30N 47°34' W 122°37'0 0.0
2017-Oct-19 10:00N 47°34' W 122°37'0 0.0
2017-Oct-19 09:31N 47°34' W 122°37'0 0.0
2017-Oct-19 09:01N 47°34' W 122°37'4 7.6
2017-Oct-19 08:31N 47°34' W 122°32'815.8
2017-Oct-19 08:01N 47°36' W 122°20'4 8.2
2017-Oct-19 07:30N 47°35' W 122°26'713.2
2017-Oct-19 07:00N 47°34' W 122°36'1 2.0
2017-Oct-19 06:30N 47°34' W 122°37'0 0.0
2017-Oct-19 06:00N 47°34' W 122°37'0 0.0
2017-Oct-19 05:30N 47°34' W 122°37'0 0.3
2017-Oct-19 05:00N 47°34' W 122°37'510.9
2017-Oct-19 04:30N 47°34' W 122°29'612.1
2017-Oct-19 03:59N 47°36' W 122°20'510.3
2017-Oct-19 03:30N 47°35' W 122°27'712.9
2017-Oct-19 02:59N 47°34' W 122°37'3 5.3
2017-Oct-19 02:31N 47°35' W 122°34'612.3
2017-Oct-19 02:01N 47°36' W 122°25'3 6.5
2017-Oct-19 01:30N 47°36' W 122°20'714.2
2017-Oct-19 01:00N 47°34' W 122°30'510.0
2017-Oct-19 00:30N 47°34' W 122°38'3 6.9
2017-Oct-19 00:01N 47°36' W 122°33'612.9
2017-Oct-18 23:30N 47°36' W 122°24'2 4.5
2017-Oct-18 23:00N 47°36' W 122°20'613.2
2017-Oct-18 22:30N 47°34' W 122°29'510.8
2017-Oct-18 22:00N 47°34' W 122°37'0 0.1
2017-Oct-18 21:31N 47°34' W 122°38'510.5
2017-Oct-18 21:00N 47°34' W 122°30'713.1
2017-Oct-18 20:31N 47°36' W 122°20'5 9.0
2017-Oct-18 20:00N 47°35' W 122°27'611.4
2017-Oct-18 19:30N 47°35' W 122°35'2 3.4
2017-Oct-18 19:00N 47°33' W 122°37'713.7
2017-Oct-18 18:30N 47°35' W 122°27'5 9.2
2017-Oct-18 18:00N 47°36' W 122°20'3 5.5
2017-Oct-18 17:30N 47°36' W 122°24'612.7
2017-Oct-18 17:00N 47°35' W 122°34'3 6.2
2017-Oct-18 16:30N 47°34' W 122°38'4 7.8
2017-Oct-18 16:00N 47°34' W 122°32'815.8
2017-Oct-18 15:30N 47°36' W 122°20'4 7.3
2017-Oct-18 15:00N 47°35' W 122°26'8 8.1
2017-Oct-18 14:00N 47°34' W 122°38'510.6
2017-Oct-18 13:30N 47°34' W 122°30'713.1
2017-Oct-18 13:00N 47°36' W 122°20'4 8.6
2017-Oct-18 12:31N 47°35' W 122°27'612.3
2017-Oct-18 12:00N 47°34' W 122°36'1 2.6
2017-Oct-18 11:30N 47°34' W 122°37'0 0.0
2017-Oct-18 11:00N 47°34' W 122°37'0 0.0
2017-Oct-18 10:30N 47°34' W 122°37'0 0.0
2017-Oct-18 10:00N 47°34' W 122°37'0 0.0
2017-Oct-18 09:30N 47°34' W 122°37'0 0.0
2017-Oct-18 09:00N 47°34' W 122°37'0 0.0
2017-Oct-18 08:30N 47°34' W 122°37'0 0.0
2017-Oct-18 08:00N 47°34' W 122°37'0 0.0
2017-Oct-18 07:30N 47°34' W 122°37'0 0.0
2017-Oct-18 07:00N 47°34' W 122°37'0 0.0
2017-Oct-18 06:30N 47°34' W 122°37'0 0.0
2017-Oct-18 06:00N 47°34' W 122°37'0 0.0
2017-Oct-18 05:30N 47°34' W 122°37'0 0.0
2017-Oct-18 05:00N 47°34' W 122°37'510.3
2017-Oct-18 04:30N 47°34' W 122°30'711.9
2017-Oct-18 03:57N 47°36' W 122°20'4 9.7
2017-Oct-18 03:30N 47°35' W 122°26'713.5
2017-Oct-18 03:00N 47°34' W 122°36'1 1.9
2017-Oct-18 02:30N 47°34' W 122°35'613.0
2017-Oct-18 02:01N 47°35' W 122°26'4 7.3
2017-Oct-18 01:30N 47°36' W 122°20'612.9
2017-Oct-18 01:01N 47°34' W 122°29'610.8
2017-Oct-18 00:29N 47°34' W 122°38'3 5.9
2017-Oct-18 00:01N 47°35' W 122°34'713.8
2017-Oct-17 23:31N 47°36' W 122°24'2 4.7
2017-Oct-17 23:00N 47°36' W 122°20'713.3
2017-Oct-17 22:31N 47°34' W 122°30'510.6
2017-Oct-17 22:00N 47°34' W 122°38'0 0.0
2017-Oct-17 21:30N 47°34' W 122°38'4 8.8
2017-Oct-17 21:01N 47°34' W 122°31'714.9
2017-Oct-17 20:30N 47°36' W 122°20'4 8.0
2017-Oct-17 20:01N 47°35' W 122°26'612.3
2017-Oct-17 19:30N 47°35' W 122°35'2 3.6
2017-Oct-17 19:00N 47°33' W 122°37'713.5
2017-Oct-17 18:30N 47°35' W 122°28'5 9.9
2017-Oct-17 18:00N 47°36' W 122°20'2 3.6
2017-Oct-17 17:30N 47°36' W 122°23'713.7
2017-Oct-17 17:01N 47°36' W 122°33'3 7.0
2017-Oct-17 16:30N 47°34' W 122°38'4 8.8
2017-Oct-17 16:01N 47°34' W 122°31'714.8
2017-Oct-17 15:30N 47°36' W 122°20'4 7.1
2017-Oct-17 15:01N 47°35' W 122°25'713.6
2017-Oct-17 14:30N 47°34' W 122°35'2 3.0
2017-Oct-17 14:00N 47°34' W 122°37'611.5
2017-Oct-17 13:30N 47°35' W 122°29'611.9
2017-Oct-17 13:01N 47°36' W 122°20'3 7.0
2017-Oct-17 12:30N 47°36' W 122°26'713.0
2017-Oct-17 12:00N 47°35' W 122°35'2 3.6
2017-Oct-17 11:30N 47°34' W 122°37'0 0.0
2017-Oct-17 11:00N 47°34' W 122°37'0 0.0
2017-Oct-17 10:30N 47°34' W 122°37'0 0.0
2017-Oct-17 10:00N 47°34' W 122°37'0 0.0
2017-Oct-17 09:30N 47°34' W 122°37'0 0.0
2017-Oct-17 09:00N 47°34' W 122°37'0 0.0
2017-Oct-17 08:30N 47°34' W 122°37'0 0.0
2017-Oct-17 08:00N 47°34' W 122°37'0 0.0
2017-Oct-17 07:30N 47°34' W 122°37'0 0.0
2017-Oct-17 07:00N 47°34' W 122°37'0 0.0
2017-Oct-17 06:30N 47°34' W 122°37'0 0.0
2017-Oct-17 06:00N 47°34' W 122°37'0 0.0
2017-Oct-17 05:30N 47°34' W 122°37'0 0.0
2017-Oct-17 05:00N 47°34' W 122°37'510.8
2017-Oct-17 04:31N 47°34' W 122°30'612.7
2017-Oct-17 04:00N 47°36' W 122°20'4 8.4
2017-Oct-17 03:30N 47°35' W 122°26'713.6
2017-Oct-17 03:00N 47°34' W 122°36'2 3.2
2017-Oct-17 02:30N 47°35' W 122°35'612.5
2017-Oct-17 02:00N 47°36' W 122°26'4 7.0
2017-Oct-17 01:30N 47°36' W 122°20'612.2
2017-Oct-17 01:00N 47°34' W 122°29'611.8
2017-Oct-17 00:31N 47°34' W 122°38'3 5.8
2017-Oct-17 00:00N 47°35' W 122°34'713.6
2017-Oct-16 23:30N 47°36' W 122°24'2 4.6
2017-Oct-16 23:00N 47°36' W 122°20'612.3
2017-Oct-16 22:31N 47°34' W 122°29'611.5
2017-Oct-16 22:00N 47°34' W 122°38'0 0.0
2017-Oct-16 21:30N 47°34' W 122°38'5 9.6
2017-Oct-16 21:01N 47°34' W 122°31'714.3
2017-Oct-16 20:30N 47°36' W 122°20'4 7.5
2017-Oct-16 20:01N 47°35' W 122°26'612.5
2017-Oct-16 19:30N 47°35' W 122°35'2 3.9
2017-Oct-16 19:00N 47°33' W 122°37'713.6
2017-Oct-16 18:30N 47°35' W 122°27'5 9.7
2017-Oct-16 18:00N 47°36' W 122°20'2 4.5
2017-Oct-16 17:31N 47°36' W 122°24'713.4
2017-Oct-16 17:00N 47°35' W 122°34'3 5.8
2017-Oct-16 16:30N 47°33' W 122°37'5 9.2
2017-Oct-16 16:00N 47°34' W 122°30'713.4
2017-Oct-16 15:30N 47°36' W 122°20'3 6.2
2017-Oct-16 15:00N 47°36' W 122°25'9 8.8
2017-Oct-16 14:00N 47°34' W 122°38'4 8.6
2017-Oct-16 13:31N 47°34' W 122°31'814.1
2017-Oct-16 12:58N 47°36' W 122°20'3 6.0
2017-Oct-16 12:31N 47°36' W 122°24'714.1
2017-Oct-16 12:01N 47°35' W 122°35'2 4.3
2017-Oct-16 11:30N 47°34' W 122°37'0 0.0
2017-Oct-16 11:01N 47°34' W 122°37'0 0.0
2017-Oct-16 10:30N 47°34' W 122°37'0 0.0
2017-Oct-16 10:00N 47°34' W 122°37'0 0.0
2017-Oct-16 09:30N 47°34' W 122°37'0 0.0
2017-Oct-16 09:00N 47°34' W 122°37'0 0.0
2017-Oct-16 08:30N 47°34' W 122°37'0 0.0
2017-Oct-16 08:00N 47°34' W 122°37'0 0.0
2017-Oct-16 07:30N 47°34' W 122°37'0 0.0
2017-Oct-16 07:00N 47°34' W 122°37'0 0.0
2017-Oct-16 06:30N 47°34' W 122°37'0 0.0
2017-Oct-16 06:00N 47°34' W 122°37'0 0.0
2017-Oct-16 05:30N 47°34' W 122°37'0 0.5
2017-Oct-16 05:00N 47°34' W 122°37'611.9
2017-Oct-16 04:30N 47°35' W 122°29'611.0
2017-Oct-16 03:59N 47°36' W 122°20'613.1
2017-Oct-16 03:30N 47°34' W 122°29'611.2
2017-Oct-16 03:00N 47°34' W 122°38'3 5.9
2017-Oct-16 02:30N 47°35' W 122°34'612.8
2017-Oct-16 02:00N 47°36' W 122°24'3 5.5
2017-Oct-16 01:30N 47°36' W 122°20'714.4
2017-Oct-16 01:00N 47°34' W 122°30'5 9.2
2017-Oct-16 00:30N 47°34' W 122°38'3 6.0
2017-Oct-16 00:00N 47°35' W 122°34'713.7
2017-Oct-15 23:30N 47°36' W 122°24'2 4.5
2017-Oct-15 23:00N 47°36' W 122°20'612.7
2017-Oct-15 22:31N 47°34' W 122°29'610.9
2017-Oct-15 22:00N 47°34' W 122°38'0 0.0
2017-Oct-15 21:30N 47°34' W 122°38'4 7.5
2017-Oct-15 21:01N 47°34' W 122°32'816.3
2017-Oct-15 20:30N 47°36' W 122°20'4 7.7
2017-Oct-15 20:00N 47°35' W 122°26'612.7
2017-Oct-15 19:30N 47°35' W 122°35'2 3.6
2017-Oct-15 19:01N 47°33' W 122°37'713.3
2017-Oct-15 18:30N 47°35' W 122°28'510.1
2017-Oct-15 18:00N 47°36' W 122°20'3 5.3
2017-Oct-15 17:30N 47°36' W 122°24'612.8
2017-Oct-15 17:00N 47°35' W 122°34'3 6.0
2017-Oct-15 16:30N 47°34' W 122°38'4 8.5
2017-Oct-15 16:00N 47°34' W 122°31'815.3
2017-Oct-15 15:30N 47°36' W 122°20'4 7.2
2017-Oct-15 15:00N 47°35' W 122°26'8 8.2
2017-Oct-15 14:01N 47°34' W 122°38'5 9.3
2017-Oct-15 13:30N 47°34' W 122°31'714.5
2017-Oct-15 13:01N 47°36' W 122°20'1 1.2
2017-Oct-15 12:30N 47°36' W 122°21'815.2
2017-Oct-15 12:00N 47°35' W 122°32'4 7.2
2017-Oct-15 11:30N 47°34' W 122°37'0 0.0
2017-Oct-15 11:00N 47°34' W 122°37'0 0.0
2017-Oct-15 10:30N 47°34' W 122°37'0 0.0
2017-Oct-15 10:00N 47°34' W 122°37'0 0.0
2017-Oct-15 09:30N 47°34' W 122°37'0 0.0
2017-Oct-15 09:00N 47°34' W 122°37'0 0.0
2017-Oct-15 08:30N 47°34' W 122°37'0 0.0
2017-Oct-15 08:00N 47°34' W 122°37'0 0.0
2017-Oct-15 07:30N 47°34' W 122°37'0 0.0
2017-Oct-15 07:00N 47°34' W 122°37'0 0.0
2017-Oct-15 06:30N 47°34' W 122°37'0 0.0
2017-Oct-15 06:00N 47°34' W 122°37'0 0.0
2017-Oct-15 05:31N 47°34' W 122°37'0 0.0
2017-Oct-15 05:00N 47°34' W 122°37'611.2
2017-Oct-15 04:30N 47°34' W 122°29'610.6
2017-Oct-15 03:55N 47°36' W 122°20'410.3
2017-Oct-15 03:31N 47°35' W 122°27'713.4
2017-Oct-15 03:00N 47°34' W 122°36'1 2.0
2017-Oct-15 02:30N 47°34' W 122°36'713.2
2017-Oct-15 02:00N 47°35' W 122°26'4 7.3
2017-Oct-15 01:29N 47°36' W 122°20'612.9
2017-Oct-15 01:01N 47°34' W 122°29'611.4
2017-Oct-15 00:30N 47°34' W 122°38'3 6.9
2017-Oct-15 00:01N 47°36' W 122°33'713.7
2017-Oct-14 23:30N 47°36' W 122°23'2 3.7
2017-Oct-14 23:00N 47°36' W 122°20'612.6
2017-Oct-14 22:30N 47°34' W 122°29'611.1
2017-Oct-14 22:00N 47°34' W 122°38'0 0.0
2017-Oct-14 21:29N 47°34' W 122°38'510.5
2017-Oct-14 21:00N 47°34' W 122°30'713.4
2017-Oct-14 20:30N 47°36' W 122°20'4 7.6
2017-Oct-14 20:00N 47°35' W 122°26'612.5
2017-Oct-14 19:30N 47°35' W 122°35'2 3.7
2017-Oct-14 19:00N 47°33' W 122°37'713.4
2017-Oct-14 18:30N 47°35' W 122°28'5 9.8
2017-Oct-14 18:00N 47°36' W 122°20'3 5.4
2017-Oct-14 17:31N 47°36' W 122°24'612.6
2017-Oct-14 17:01N 47°35' W 122°34'3 6.3
2017-Oct-14 16:31N 47°34' W 122°38'4 8.4
2017-Oct-14 16:01N 47°34' W 122°31'815.2
2017-Oct-14 15:30N 47°36' W 122°20'3 6.7
2017-Oct-14 15:01N 47°36' W 122°25'713.3
2017-Oct-14 14:31N 47°35' W 122°35'2 3.8
2017-Oct-14 14:00N 47°34' W 122°38'4 8.3
2017-Oct-14 13:31N 47°34' W 122°32'815.5
2017-Oct-14 13:00N 47°36' W 122°20'4 7.0
2017-Oct-14 12:31N 47°35' W 122°25'713.2
2017-Oct-14 12:00N 47°35' W 122°35'2 3.4
2017-Oct-14 11:31N 47°34' W 122°37'0 0.0
2017-Oct-14 11:00N 47°34' W 122°37'0 0.0
2017-Oct-14 10:30N 47°34' W 122°37'0 0.0
2017-Oct-14 10:00N 47°34' W 122°37'0 0.0
2017-Oct-14 09:30N 47°34' W 122°37'0 0.0
2017-Oct-14 09:00N 47°34' W 122°37'0 0.0
2017-Oct-14 08:30N 47°34' W 122°37'0 0.0
2017-Oct-14 08:00N 47°34' W 122°37'0 0.0
2017-Oct-14 07:30N 47°34' W 122°37'0 0.0
2017-Oct-14 07:01N 47°34' W 122°37'0 0.0
2017-Oct-14 06:30N 47°34' W 122°37'0 0.0
2017-Oct-14 06:00N 47°34' W 122°37'0 0.0
2017-Oct-14 05:30N 47°34' W 122°37'0 0.0
2017-Oct-14 05:00N 47°34' W 122°37'611.3
2017-Oct-14 04:31N 47°35' W 122°29'612.2
2017-Oct-14 04:00N 47°36' W 122°20'5 9.6
2017-Oct-14 03:31N 47°35' W 122°27'612.4
2017-Oct-14 03:01N 47°34' W 122°36'1 2.4
2017-Oct-14 02:30N 47°35' W 122°35'713.2
2017-Oct-14 02:01N 47°35' W 122°25'3 5.6
2017-Oct-14 01:25N 47°36' W 122°21'615.6
2017-Oct-14 01:01N 47°34' W 122°30'510.5
2017-Oct-14 00:30N 47°34' W 122°38'3 6.7
2017-Oct-14 00:00N 47°36' W 122°33'713.6
2017-Oct-13 23:30N 47°36' W 122°24'2 4.3
2017-Oct-13 23:00N 47°36' W 122°20'612.0
2017-Oct-13 22:30N 47°34' W 122°29'611.6
2017-Oct-13 22:00N 47°34' W 122°38'0 0.0
2017-Oct-13 21:31N 47°34' W 122°38'4 8.2
2017-Oct-13 21:00N 47°34' W 122°31'815.5
2017-Oct-13 20:30N 47°36' W 122°20'4 8.0
2017-Oct-13 20:00N 47°35' W 122°26'612.4
2017-Oct-13 19:31N 47°34' W 122°35'2 3.4
2017-Oct-13 19:00N 47°34' W 122°37'612.8
2017-Oct-13 18:31N 47°35' W 122°28'510.8
2017-Oct-13 18:00N 47°36' W 122°20'3 5.9
2017-Oct-13 17:30N 47°36' W 122°25'612.3
2017-Oct-13 17:00N 47°35' W 122°34'3 6.0
2017-Oct-13 16:31N 47°34' W 122°38'5 9.0
2017-Oct-13 16:01N 47°34' W 122°31'714.7
2017-Oct-13 15:30N 47°36' W 122°20'4 7.9
2017-Oct-13 15:00N 47°35' W 122°26'612.2
2017-Oct-13 14:31N 47°35' W 122°35'2 3.8
2017-Oct-13 14:00N 47°34' W 122°38'4 8.3
2017-Oct-13 13:31N 47°34' W 122°31'815.3
2017-Oct-13 13:00N 47°36' W 122°20'3 6.4
2017-Oct-13 12:31N 47°36' W 122°25'713.6
2017-Oct-13 12:01N 47°35' W 122°35'2 3.8
2017-Oct-13 11:30N 47°34' W 122°37'0 0.0
2017-Oct-13 11:00N 47°34' W 122°37'0 0.0
2017-Oct-13 10:30N 47°34' W 122°37'0 0.0
2017-Oct-13 10:00N 47°34' W 122°37'0 0.0
2017-Oct-13 09:30N 47°34' W 122°37'0 0.0
2017-Oct-13 09:00N 47°34' W 122°37'0 0.0
2017-Oct-13 08:30N 47°34' W 122°37'0 0.0
2017-Oct-13 08:00N 47°34' W 122°37'0 0.0
2017-Oct-13 07:30N 47°34' W 122°37'0 0.0
2017-Oct-13 07:00N 47°34' W 122°37'0 0.0
2017-Oct-13 06:31N 47°34' W 122°37'0 0.0
2017-Oct-13 06:00N 47°34' W 122°37'0 0.0
2017-Oct-13 05:30N 47°34' W 122°37'0 0.0
2017-Oct-13 05:00N 47°34' W 122°37'611.6
2017-Oct-13 04:31N 47°35' W 122°29'611.9
2017-Oct-13 04:00N 47°36' W 122°20'510.5
2017-Oct-13 03:30N 47°34' W 122°28'612.0
2017-Oct-13 03:01N 47°34' W 122°36'1 1.5
2017-Oct-13 02:30N 47°34' W 122°36'713.7
2017-Oct-13 02:00N 47°35' W 122°26'4 7.6
2017-Oct-13 01:30N 47°36' W 122°20'612.7
2017-Oct-13 01:00N 47°34' W 122°29'611.2
2017-Oct-13 00:31N 47°34' W 122°38'3 5.6
2017-Oct-13 00:01N 47°35' W 122°34'714.0
2017-Oct-12 23:30N 47°36' W 122°24'2 4.5
2017-Oct-12 23:00N 47°36' W 122°20'611.7
2017-Oct-12 22:30N 47°34' W 122°29'612.1
2017-Oct-12 22:01N 47°34' W 122°38'0 0.0
2017-Oct-12 21:30N 47°34' W 122°38'4 8.3
2017-Oct-12 21:01N 47°34' W 122°31'815.4
2017-Oct-12 20:30N 47°36' W 122°20'3 6.2
2017-Oct-12 20:00N 47°36' W 122°25'713.5
2017-Oct-12 19:30N 47°35' W 122°35'2 4.4
2017-Oct-12 19:01N 47°33' W 122°37'713.2
2017-Oct-12 18:30N 47°35' W 122°28'510.1
2017-Oct-12 18:00N 47°36' W 122°20'3 5.7
2017-Oct-12 17:31N 47°36' W 122°25'612.5
2017-Oct-12 17:01N 47°35' W 122°34'3 5.9
2017-Oct-12 16:30N 47°34' W 122°38'5 9.3
2017-Oct-12 16:00N 47°34' W 122°31'714.3
2017-Oct-12 15:30N 47°36' W 122°20'4 8.2
2017-Oct-12 15:00N 47°35' W 122°26'612.2
2017-Oct-12 14:30N 47°35' W 122°35'2 3.4
2017-Oct-12 14:00N 47°34' W 122°38'4 8.3
2017-Oct-12 13:30N 47°34' W 122°31'815.4
2017-Oct-12 13:00N 47°36' W 122°20'4 7.1
2017-Oct-12 12:30N 47°35' W 122°26'612.9
2017-Oct-12 12:00N 47°35' W 122°35'2 3.8
2017-Oct-12 11:30N 47°34' W 122°37'0 0.0
2017-Oct-12 11:00N 47°34' W 122°37'0 0.0
2017-Oct-12 10:31N 47°34' W 122°37'0 0.0
2017-Oct-12 10:01N 47°34' W 122°37'  

Dump ship's entire track history